Time;durP1;ratioP1;P1;durP2;ratioP2;P2;SDS_P1;SDS_P2;PMS_P1;PMS_P2;Temp;Humidity;BMP_temperature;BMP_pressure;BME280_temperature;BME280_humidity;BME280_pressure;Samples;Min_cycle;Max_cycle;Signal;HPM_P1;HPM_P2
2022/09/01 00:00:09;;;;;;;3.67;0.82;;;;;;;10.49;100.00;99072.72;5174741;27;20577;-46
2022/09/01 00:02:36;;;;;;;2.58;0.90;;;;;;;10.57;100.00;99069.75;5174971;27;20050;-46
2022/09/01 00:05:04;;;;;;;1.10;0.70;;;;;;;10.51;100.00;99100.59;5174760;27;20046;-46
2022/09/01 00:07:31;;;;;;;1.00;1.00;;;;;;;10.56;100.00;99083.81;5174646;27;20132;-46
2022/09/01 00:09:57;;;;;;;1.60;0.75;;;;;;;10.59;100.00;99083.09;5174681;27;20097;-46
2022/09/01 00:12:24;;;;;;;1.30;1.00;;;;;;;10.56;100.00;99046.25;5174546;27;20047;-46
2022/09/01 00:14:51;;;;;;;1.10;1.10;;;;;;;10.53;100.00;99065.34;5174598;27;20496;-46
2022/09/01 00:17:18;;;;;;;3.80;0.70;;;;;;;10.48;100.00;99071.94;5174241;27;20046;-46
2022/09/01 00:19:44;;;;;;;1.25;0.90;;;;;;;10.41;100.00;99121.16;5174504;27;20518;-46
2022/09/01 00:22:10;;;;;;;7.97;1.00;;;;;;;10.53;100.00;99098.25;5174493;27;20081;-46
2022/09/01 00:24:37;;;;;;;0.85;0.80;;;;;;;10.59;100.00;99078.38;5174224;27;20090;-48
2022/09/01 00:27:03;;;;;;;0.98;0.80;;;;;;;10.59;100.00;99064.69;5174335;27;20138;-50
2022/09/01 00:29:29;;;;;;;0.80;0.80;;;;;;;10.56;100.00;99067.38;5174516;27;20516;-50
2022/09/01 00:31:56;;;;;;;1.40;0.98;;;;;;;10.55;100.00;99055.63;5174187;27;20077;-47
2022/09/01 00:34:23;;;;;;;5.18;1.00;;;;;;;10.54;100.00;99088.88;5174064;27;20138;-47
2022/09/01 00:36:49;;;;;;;1.00;0.82;;;;;;;10.53;100.00;99090.84;5174119;27;20081;-48
2022/09/01 00:39:16;;;;;;;1.00;1.00;;;;;;;10.41;100.00;99092.97;5174326;27;20129;-47
2022/09/01 00:41:43;;;;;;;1.73;1.30;;;;;;;10.44;100.00;99098.50;5174187;27;20046;-47
2022/09/01 00:44:13;;;;;;;2.35;1.00;;;;;;;10.36;100.00;99135.16;5173930;27;20042;-46
2022/09/01 00:46:41;;;;;;;1.58;1.00;;;;;;;10.18;100.00;99177.84;5174023;27;20470;-46
2022/09/01 00:49:11;;;;;;;2.85;0.98;;;;;;;10.25;100.00;99197.94;5173888;27;20145;-47
2022/09/01 00:51:41;;;;;;;3.53;0.90;;;;;;;10.20;100.00;99192.78;5174242;27;20077;-47
2022/09/01 00:54:13;;;;;;;1.00;0.93;;;;;;;10.19;100.00;99184.91;5173935;27;20178;-48
2022/09/01 00:56:41;;;;;;;3.33;0.95;;;;;;;10.14;100.00;99196.97;5173512;27;20053;-49
2022/09/01 00:59:10;;;;;;;0.70;0.70;;;;;;;9.91;100.00;99243.44;5173707;27;20085;-46
2022/09/01 01:01:37;;;;;;;0.82;0.82;;;;;;;10.10;100.00;99237.97;5173754;27;20137;-46
2022/09/01 01:04:05;;;;;;;1.35;1.00;;;;;;;10.08;100.00;99220.31;5173588;27;20552;-47
2022/09/01 01:06:32;;;;;;;2.25;1.05;;;;;;;10.12;100.00;99216.47;5173723;27;20128;-47
2022/09/01 01:09:00;;;;;;;3.63;1.00;;;;;;;10.08;100.00;99201.13;5173690;27;20046;-47
2022/09/01 01:11:31;;;;;;;0.70;0.70;;;;;;;9.99;100.00;99212.28;5173492;27;20140;-46
2022/09/01 01:14:00;;;;;;;2.85;1.00;;;;;;;10.02;100.00;99186.13;5173538;27;20057;-45
2022/09/01 01:16:28;;;;;;;2.38;1.00;;;;;;;10.14;100.00;99177.78;5173426;27;20126;-45
2022/09/01 01:18:55;;;;;;;1.13;1.00;;;;;;;10.21;100.00;99147.00;5173578;27;20050;-47
2022/09/01 01:24:22;;;;;;;0.82;0.82;;;;;;;10.38;100.00;99055.34;5173432;27;20049;-47
2022/09/01 01:26:49;;;;;;;3.95;0.95;;;;;;;10.31;100.00;99047.78;5173500;27;20451;-47
2022/09/01 01:29:16;;;;;;;8.57;1.05;;;;;;;10.36;100.00;98982.50;5173349;27;20194;-47
2022/09/01 01:31:42;;;;;;;4.55;1.02;;;;;;;10.36;100.00;98988.00;5173372;27;20057;-47
2022/09/01 01:34:09;;;;;;;1.63;0.88;;;;;;;10.04;100.00;98983.91;5173394;27;20058;-46
2022/09/01 01:36:38;;;;;;;2.38;1.10;;;;;;;10.16;100.00;99010.31;5173381;27;20485;-47
2022/09/01 01:39:08;;;;;;;0.80;0.80;;;;;;;10.34;100.00;98970.34;5173164;27;20053;-46
2022/09/01 01:41:41;;;;;;;0.70;0.70;;;;;;;10.37;100.00;98933.97;5173121;27;20042;-48
2022/09/01 01:44:08;;;;;;;3.17;0.88;;;;;;;10.49;100.00;98881.66;5173078;27;20046;-47
2022/09/01 01:46:36;;;;;;;0.98;0.98;;;;;;;10.50;100.00;98855.84;5172983;27;20153;-47
2022/09/01 01:49:03;;;;;;;1.50;0.90;;;;;;;10.54;100.00;98858.66;5173369;27;20160;-47
2022/09/01 01:51:31;;;;;;;1.13;0.80;;;;;;;10.57;100.00;98838.72;5173186;27;20050;-47
2022/09/01 01:54:00;;;;;;;1.35;0.98;;;;;;;10.45;100.00;98852.66;5173196;27;20095;-50
2022/09/01 01:56:27;;;;;;;1.30;0.80;;;;;;;10.54;100.00;98832.03;5172815;27;20050;-45
2022/09/01 01:58:56;;;;;;;1.08;0.80;;;;;;;10.50;100.00;98831.19;5173004;27;20513;-46
2022/09/01 02:01:24;;;;;;;4.30;0.93;;;;;;;10.64;100.00;98792.19;5172830;27;20476;-47
2022/09/01 02:03:53;;;;;;;0.85;0.85;;;;;;;10.41;100.00;98791.53;5172900;27;20054;-46
2022/09/01 02:06:24;;;;;;;1.30;0.80;;;;;;;10.32;100.00;98833.69;5172697;27;20060;-50
2022/09/01 02:08:51;;;;;;;0.75;0.75;;;;;;;10.42;100.00;98862.38;5172589;27;20046;-46
2022/09/01 02:11:18;;;;;;;0.90;0.90;;;;;;;10.40;100.00;98847.50;5172560;27;20050;-47
2022/09/01 02:13:45;;;;;;;2.22;0.95;;;;;;;10.29;100.00;98869.25;5172842;27;20081;-47
2022/09/01 02:16:12;;;;;;;1.10;1.00;;;;;;;10.10;100.00;98894.78;5171739;27;20047;-46
2022/09/01 02:18:42;;;;;;;1.15;0.80;;;;;;;10.19;100.00;98913.69;5172425;27;20057;-48
2022/09/01 02:21:11;;;;;;;2.67;1.42;;;;;;;10.03;100.00;98922.03;5172731;27;20505;-47
2022/09/01 02:23:39;;;;;;;2.45;1.00;;;;;;;10.11;100.00;98976.59;5172433;27;20046;-47
2022/09/01 02:26:07;;;;;;;1.40;0.95;;;;;;;10.15;100.00;98960.22;5172562;27;20064;-48
2022/09/01 02:28:36;;;;;;;0.93;0.93;;;;;;;10.11;100.00;98964.84;5172485;27;20073;-47
2022/09/01 02:31:03;;;;;;;0.98;0.90;;;;;;;10.15;100.00;99004.03;5172674;27;20483;-46
2022/09/01 02:33:31;;;;;;;1.25;1.00;;;;;;;10.07;100.00;98977.69;5172923;27;20164;-46
2022/09/01 02:36:02;;;;;;;1.60;0.75;;;;;;;10.02;100.00;98981.50;5172432;27;20060;-47
2022/09/01 02:38:30;;;;;;;2.10;1.05;;;;;;;9.96;100.00;99028.75;5172150;27;20043;-46
2022/09/01 02:40:57;;;;;;;7.78;1.45;;;;;;;9.97;100.00;99031.13;5172177;27;20046;-46
2022/09/01 02:43:25;;;;;;;1.42;1.05;;;;;;;9.97;100.00;99036.59;5172193;27;20501;-47
2022/09/01 02:45:54;;;;;;;0.75;0.75;;;;;;;9.82;100.00;99060.19;5172206;27;20141;-46
2022/09/01 02:48:23;;;;;;;1.83;0.93;;;;;;;9.77;100.00;99089.81;5172347;27;20126;-47
2022/09/01 02:50:50;;;;;;;0.82;0.82;;;;;;;9.74;100.00;99099.53;5172387;27;20047;-47
2022/09/01 02:53:16;;;;;;;1.40;1.00;;;;;;;9.68;100.00;99114.66;5172292;27;20046;-46
2022/09/01 02:55:43;;;;;;;6.43;1.52;;;;;;;9.57;100.00;99185.59;5172020;27;20218;-46
2022/09/01 02:58:15;;;;;;;0.90;0.90;;;;;;;9.30;100.00;99228.38;5172101;27;20129;-47
2022/09/01 03:00:42;;;;;;;1.60;0.93;;;;;;;9.41;100.00;99261.47;5171967;27;20057;-46
2022/09/01 03:03:11;;;;;;;1.27;0.80;;;;;;;9.54;100.00;99249.25;5171961;27;20042;-47
2022/09/01 03:05:38;;;;;;;3.05;1.30;;;;;;;9.55;100.00;99241.84;5171757;27;20054;-47
2022/09/01 03:08:09;;;;;;;0.82;0.80;;;;;;;9.47;100.00;99262.00;5171877;27;20512;-46
2022/09/01 03:10:40;;;;;;;2.15;1.05;;;;;;;9.47;100.00;99270.19;5172170;27;20068;-47
2022/09/01 03:13:10;;;;;;;3.03;1.17;;;;;;;9.35;100.00;99312.91;5171959;27;20042;-48
2022/09/01 03:15:37;;;;;;;1.75;1.00;;;;;;;9.40;100.00;99301.72;5172057;27;20110;-47
2022/09/01 03:18:06;;;;;;;4.80;1.23;;;;;;;9.41;100.00;99292.34;5171542;27;20197;-48
2022/09/01 03:20:34;;;;;;;2.03;0.80;;;;;;;9.35;100.00;99309.38;5171946;27;20110;-49
2022/09/01 03:23:03;;;;;;;2.78;1.13;;;;;;;9.35;100.00;99329.31;5171956;27;20046;-48
2022/09/01 03:25:31;;;;;;;1.27;1.17;;;;;;;9.33;100.00;99352.69;5171730;27;20050;-48
2022/09/01 03:28:00;;;;;;;1.65;1.55;;;;;;;9.28;100.00;99361.97;5174111;27;20062;-48
2022/09/01 03:30:27;;;;;;;1.35;0.98;;;;;;;9.37;100.00;99378.22;5175187;27;20046;-47
2022/09/01 03:32:53;;;;;;;1.70;1.00;;;;;;;9.36;100.00;99393.03;5175212;27;20042;-46
2022/09/01 03:35:21;;;;;;;6.57;1.27;;;;;;;9.46;100.00;99384.31;5175129;27;20505;-47
2022/09/01 03:37:47;;;;;;;2.22;1.10;;;;;;;9.51;100.00;99377.81;5174992;27;20520;-46
2022/09/01 03:40:17;;;;;;;1.55;1.08;;;;;;;9.58;100.00;99377.97;5175185;27;20132;-45
2022/09/01 03:42:44;;;;;;;4.15;1.02;;;;;;;9.53;100.00;99375.50;5175345;27;20071;-47
2022/09/01 03:45:14;;;;;;;3.38;1.42;;;;;;;9.68;100.00;99362.97;5175048;27;20137;-46
2022/09/01 03:47:41;;;;;;;3.50;1.10;;;;;;;9.80;100.00;99343.72;5175439;27;20050;-47
2022/09/01 03:50:16;;;;;;;2.65;1.77;;;;;;;9.89;100.00;99317.72;5175166;27;20050;-49
2022/09/01 03:52:43;;;;;;;1.27;1.20;;;;;;;10.04;100.00;99271.50;5175230;27;20046;-48
2022/09/01 03:55:09;;;;;;;2.00;0.98;;;;;;;10.13;100.00;99259.19;5174903;27;20627;-46
2022/09/01 03:57:40;;;;;;;1.50;1.30;;;;;;;10.21;100.00;99220.97;5174720;27;20141;-47
2022/09/01 04:00:19;;;;;;;1.38;1.10;;;;;;;10.54;100.00;99166.44;5174912;27;20132;-46
2022/09/01 04:02:47;;;;;;;0.90;0.90;;;;;;;11.72;100.00;98989.75;5175105;27;20135;-46
2022/09/01 04:05:13;;;;;;;6.60;1.00;;;;;;;12.48;100.00;98612.59;5174773;27;20046;-47
2022/09/01 04:07:40;;;;;;;1.45;0.95;;;;;;;12.99;100.00;98376.78;5174696;27;20549;-48
2022/09/01 04:10:10;;;;;;;0.95;0.90;;;;;;;13.81;100.00;98224.78;5175308;27;20098;-47
2022/09/01 04:12:36;;;;;;;1.25;0.90;;;;;;;13.64;100.00;98206.47;5174561;27;20110;-46
2022/09/01 04:15:03;;;;;;;2.00;1.08;;;;;;;14.25;100.00;98203.03;5174536;27;20091;-46
2022/09/01 04:20:18;;;;;;;4.60;1.00;;;;;;;13.86;100.00;98224.34;5174825;27;20048;-47
2022/09/01 04:22:46;;;;;;;2.05;0.90;;;;;;;13.26;100.00;98211.13;5174565;27;20512;-47
2022/09/01 04:25:13;;;;;;;2.65;1.08;;;;;;;12.33;100.00;98212.50;5174437;27;20050;-46
2022/09/01 04:27:39;;;;;;;3.67;1.10;;;;;;;12.22;100.00;98239.22;5174511;27;20046;-50
2022/09/01 04:30:09;;;;;;;2.40;1.20;;;;;;;12.19;100.00;98271.00;5174214;27;20084;-50
2022/09/01 04:32:36;;;;;;;1.00;1.00;;;;;;;12.05;100.00;98303.25;5174303;27;20054;-47
2022/09/01 04:35:03;;;;;;;2.20;1.30;;;;;;;11.98;100.00;98345.25;5174087;27;20046;-46
2022/09/01 04:37:30;;;;;;;0.95;0.85;;;;;;;11.88;100.00;98376.25;5174096;27;20081;-46
2022/09/01 04:39:56;;;;;;;1.00;1.00;;;;;;;12.37;100.00;98364.44;5173496;27;20054;-46
2022/09/01 04:42:25;;;;;;;2.03;1.23;;;;;;;12.32;100.00;98309.06;5174224;27;20050;-47
2022/09/01 04:44:53;;;;;;;0.85;0.80;;;;;;;12.07;100.00;98311.88;5173972;27;20493;-46
2022/09/01 04:47:28;;;;;;;2.17;1.05;;;;;;;12.45;100.00;98321.19;5173951;27;20509;-45
2022/09/01 04:49:56;;;;;;;1.27;1.15;;;;;;;13.66;100.00;98223.34;5173919;27;20054;-46
2022/09/01 04:52:23;;;;;;;2.70;0.90;;;;;;;14.32;100.00;98178.13;5173890;27;20513;-48
2022/09/01 04:54:49;;;;;;;1.17;1.05;;;;;;;15.35;100.00;98222.78;5173723;27;20394;-46
2022/09/01 04:57:16;;;;;;;0.90;0.90;;;;;;;15.88;100.00;98301.25;5173717;27;20135;-47
2022/09/01 04:59:42;;;;;;;1.13;1.00;;;;;;;16.13;100.00;98367.16;5173766;27;20046;-46
2022/09/01 05:02:09;;;;;;;3.65;1.58;;;;;;;15.97;100.00;98384.41;5173519;27;20077;-48
2022/09/01 05:04:36;;;;;;;1.20;1.10;;;;;;;16.80;100.00;98394.03;5173521;27;20081;-47
2022/09/01 05:07:04;;;;;;;1.95;1.00;;;;;;;17.16;100.00;98477.19;5173716;27;20137;-49
2022/09/01 05:09:34;;;;;;;2.35;1.30;;;;;;;17.55;100.00;98540.09;5173476;27;20046;-49
2022/09/01 05:12:09;;;;;;;10.73;1.25;;;;;;;16.91;100.00;98525.50;5173680;27;20056;-48
2022/09/01 05:14:36;;;;;;;3.28;1.42;;;;;;;16.48;100.00;98465.34;5173271;27;20058;-57
2022/09/01 05:17:09;;;;;;;1.10;1.00;;;;;;;16.41;100.00;98426.72;5173240;27;20050;-53
2022/09/01 05:19:36;;;;;;;3.95;1.20;;;;;;;17.56;100.00;98479.91;5173452;27;20050;-53
2022/09/01 05:22:03;;;;;;;1.38;1.10;;;;;;;17.95;100.00;98544.88;5173842;27;20077;-55
2022/09/01 05:24:33;;;;;;;3.00;1.10;;;;;;;17.90;100.00;98573.88;5173297;27;20050;-54
2022/09/01 05:27:00;;;;;;;1.20;1.10;;;;;;;18.00;100.00;98586.75;5173455;27;20056;-54
2022/09/01 05:29:27;;;;;;;4.35;1.10;;;;;;;17.84;100.00;98597.78;5173630;27;20055;-56
2022/09/01 05:31:55;;;;;;;1.20;1.02;;;;;;;17.34;100.00;98568.25;5173565;27;20405;-57
2022/09/01 05:34:25;;;;;;;7.93;1.52;;;;;;;16.47;100.00;98510.03;5173312;27;20047;-56
2022/09/01 05:36:53;;;;;;;4.10;1.20;;;;;;;15.51;100.00;98467.97;5173113;27;20500;-58
2022/09/01 05:39:20;;;;;;;3.83;1.10;;;;;;;16.20;100.00;98411.28;5173455;27;20042;-55
2022/09/01 05:41:48;;;;;;;2.25;1.13;;;;;;;16.57;100.00;98489.69;5173315;27;20054;-55
2022/09/01 05:44:14;;;;;;;6.03;0.93;;;;;;;16.03;100.00;98481.50;5173629;27;20825;-54
2022/09/01 05:46:43;;;;;;;2.22;1.15;;;;;;;16.88;100.00;98511.72;5172989;27;20416;-55
2022/09/01 05:49:12;;;;;;;2.90;1.02;;;;;;;16.89;100.00;98527.13;5173423;27;20050;-54
2022/09/01 05:51:41;;;;;;;1.35;1.20;;;;;;;18.20;100.00;98583.16;5171587;27;20058;-53
2022/09/01 05:54:08;;;;;;;7.00;1.77;;;;;;;18.61;100.00;98648.44;5172958;27;20046;-55
2022/09/01 05:56:37;;;;;;;3.05;1.77;;;;;;;18.60;100.00;98650.44;5172758;27;20149;-50
2022/09/01 05:59:03;;;;;;;5.20;1.75;;;;;;;18.94;100.00;98668.72;5173132;27;20050;-50
2022/09/01 06:01:32;;;;;;;26.00;2.00;;;;;;;19.54;100.00;98688.66;5172972;27;20042;-52
2022/09/01 06:04:02;;;;;;;1.83;1.10;;;;;;;19.81;100.00;98712.63;5172835;27;20049;-52
2022/09/01 06:06:34;;;;;;;3.50;0.82;;;;;;;20.22;100.00;98736.91;5172769;27;20141;-54
2022/09/01 06:09:01;;;;;;;3.28;1.02;;;;;;;19.63;100.00;98722.22;5172638;27;20054;-51
2022/09/01 06:11:27;;;;;;;2.45;1.08;;;;;;;20.38;100.00;98731.28;5172596;27;20046;-52
2022/09/01 06:13:55;;;;;;;3.65;0.82;;;;;;;19.57;100.00;98723.94;5172588;27;20042;-51
2022/09/01 06:16:23;;;;;;;5.40;1.13;;;;;;;19.56;100.00;98705.69;5172681;27;20054;-50
2022/09/01 06:18:51;;;;;;;3.30;1.00;;;;;;;20.05;100.00;98719.50;5172841;27;20133;-54
2022/09/01 06:21:17;;;;;;;2.10;1.10;;;;;;;20.55;100.00;98732.00;5172386;27;20477;-50
2022/09/01 06:23:44;;;;;;;1.23;1.13;;;;;;;20.87;100.00;98772.84;5172806;27;20522;-52
2022/09/01 06:26:16;;;;;;;2.50;1.02;;;;;;;20.17;100.00;98765.31;5172478;27;20520;-50
2022/09/01 06:28:43;;;;;;;4.47;1.00;;;;;;;20.35;100.00;98759.22;5172849;27;20061;-51
2022/09/01 06:31:10;;;;;;;2.17;1.20;;;;;;;20.88;100.00;98773.63;5172255;27;20056;-54
2022/09/01 06:33:37;;;;;;;1.05;0.82;;;;;;;20.80;100.00;98780.66;5172596;27;20053;-55
2022/09/01 06:36:04;;;;;;;1.35;1.00;;;;;;;21.06;100.00;98796.16;5172226;27;20054;-54
2022/09/01 06:38:31;;;;;;;2.97;1.00;;;;;;;20.87;100.00;98803.50;5172597;27;20186;-54
2022/09/01 06:41:02;;;;;;;4.32;1.00;;;;;;;21.74;100.00;98810.75;5172115;27;20157;-51
2022/09/01 06:43:29;;;;;;;6.32;1.10;;;;;;;22.26;100.00;98815.00;5171929;27;20429;-52
2022/09/01 06:46:00;;;;;;;1.85;1.10;;;;;;;22.03;100.00;98835.72;5171928;27;20469;-55
2022/09/01 06:48:29;;;;;;;3.15;1.20;;;;;;;20.83;100.00;98791.69;5171558;27;20046;-60
2022/09/01 06:51:02;;;;;;;1.42;1.00;;;;;;;20.28;100.00;98792.84;5171827;27;20053;-56
2022/09/01 06:53:30;;;;;;;2.65;1.00;;;;;;;21.21;100.00;98804.84;5171614;27;20554;-51
2022/09/01 06:55:57;;;;;;;7.57;1.20;;;;;;;21.58;100.00;98814.47;5171846;27;20053;-55
2022/09/01 06:58:24;;;;;;;1.00;1.00;;;;;;;22.31;100.00;98820.00;5171782;27;20088;-55
2022/09/01 07:00:51;;;;;;;3.42;0.90;;;;;;;22.45;100.00;98835.47;5171662;27;20049;-55
2022/09/01 07:03:17;;;;;;;1.13;1.00;;;;;;;22.71;100.00;98832.56;5174661;27;20056;-55
2022/09/01 07:05:46;;;;;;;2.15;1.30;;;;;;;22.21;100.00;98826.75;5175543;27;20083;-54
2022/09/01 07:08:18;;;;;;;5.80;2.45;;;;;;;21.52;100.00;98846.94;5175135;27;20086;-51
2022/09/01 07:10:46;;;;;;;5.18;1.40;;;;;;;20.45;100.00;98809.03;5175381;27;20094;-52
2022/09/01 07:13:20;;;;;;;1.67;1.30;;;;;;;21.24;100.00;98823.47;5175303;27;20129;-55
2022/09/01 07:15:48;;;;;;;0.82;0.82;;;;;;;21.92;100.00;98834.50;5175492;27;20050;-51
2022/09/01 07:18:16;;;;;;;1.08;0.80;;;;;;;21.09;100.00;98842.66;5175102;27;20054;-51
2022/09/01 07:20:44;;;;;;;0.93;0.93;;;;;;;21.31;100.00;98848.34;5175262;27;20050;-53
2022/09/01 07:23:10;;;;;;;11.70;1.30;;;;;;;21.50;100.00;98846.59;5175411;27;20076;-51
2022/09/01 07:25:40;;;;;;;2.83;1.02;;;;;;;21.79;100.00;98860.44;5174983;27;20050;-51
2022/09/01 07:28:07;;;;;;;3.65;0.90;;;;;;;22.06;100.00;98870.31;5175527;27;20053;-51
2022/09/01 07:30:39;;;;;;;6.80;1.20;;;;;;;21.78;99.91;98874.81;5175053;27;20046;-51
2022/09/01 07:33:10;;;;;;;2.65;1.20;;;;;;;20.52;100.00;98854.63;5175414;27;20042;-50
2022/09/01 07:35:37;;;;;;;2.55;1.08;;;;;;;19.53;100.00;98842.78;5174974;27;20090;-52
2022/09/01 07:38:08;;;;;;;4.32;0.93;;;;;;;18.77;100.00;98813.09;5174950;27;20050;-53
2022/09/01 07:40:36;;;;;;;0.90;0.90;;;;;;;19.11;100.00;98794.53;5175079;27;20481;-50
2022/09/01 07:43:07;;;;;;;3.15;1.05;;;;;;;20.40;100.00;98826.28;5175020;27;20103;-53
2022/09/01 07:45:35;;;;;;;1.67;0.95;;;;;;;20.55;100.00;98843.41;5174992;27;20091;-54
2022/09/01 07:48:05;;;;;;;1.42;0.93;;;;;;;20.87;100.00;98869.59;5174822;27;20061;-54
2022/09/01 07:50:32;;;;;;;1.05;0.98;;;;;;;20.42;100.00;98856.47;5174719;27;20046;-51
2022/09/01 07:52:59;;;;;;;2.45;1.00;;;;;;;19.67;100.00;98831.34;5174673;27;20106;-52
2022/09/01 07:55:26;;;;;;;4.00;1.50;;;;;;;20.01;100.00;98843.25;5175055;27;20046;-52
2022/09/01 07:57:56;;;;;;;18.98;1.42;;;;;;;20.06;100.00;98854.63;5174481;27;20042;-50
2022/09/01 08:00:22;;;;;;;5.05;1.15;;;;;;;19.96;100.00;98845.34;5174679;27;20050;-52
2022/09/01 08:02:50;;;;;;;1.10;1.00;;;;;;;20.62;100.00;98865.47;5174600;27;20141;-54
2022/09/01 08:05:21;;;;;;;8.70;1.00;;;;;;;20.66;100.00;98880.13;5174602;27;20465;-50
2022/09/01 08:07:48;;;;;;;2.35;1.00;;;;;;;20.79;100.00;98887.72;5174549;27;20046;-54
2022/09/01 08:10:15;;;;;;;1.40;1.30;;;;;;;20.75;100.00;98885.03;5174375;27;20053;-53
2022/09/01 08:12:42;;;;;;;5.43;1.10;;;;;;;21.48;98.36;98904.06;5174356;27;20048;-54
2022/09/01 08:15:10;;;;;;;1.42;1.33;;;;;;;22.37;91.75;98909.56;5173624;27;20189;-54
2022/09/01 08:17:38;;;;;;;2.95;1.05;;;;;;;22.94;86.16;98915.97;5174717;27;20474;-54
2022/09/01 08:20:07;;;;;;;2.47;1.20;;;;;;;22.71;87.17;98917.16;5174157;27;20148;-52
2022/09/01 08:22:34;;;;;;;2.50;1.40;;;;;;;22.08;92.12;98899.31;5174425;27;20053;-51
2022/09/01 08:25:00;;;;;;;2.45;1.30;;;;;;;21.79;94.23;98895.91;5174165;27;20443;-50
2022/09/01 08:27:26;;;;;;;1.05;1.05;;;;;;;21.60;87.98;98915.22;5174143;27;20090;-51
2022/09/01 08:29:54;;;;;;;2.17;0.95;;;;;;;21.12;92.40;98897.50;5174205;27;20140;-51
2022/09/01 08:32:20;;;;;;;2.80;1.40;;;;;;;22.13;84.96;98913.97;5174078;27;20522;-53
2022/09/01 08:34:47;;;;;;;2.40;1.13;;;;;;;22.74;82.16;98921.06;5174270;27;20133;-51
2022/09/01 08:37:13;;;;;;;1.60;1.20;;;;;;;23.27;79.38;98912.75;5173837;27;20133;-52
2022/09/01 08:39:39;;;;;;;1.23;1.10;;;;;;;21.88;85.78;98904.38;5174037;27;20061;-52
2022/09/01 08:42:15;;;;;;;2.60;1.20;;;;;;;20.31;97.34;98895.72;5173978;27;20464;-54
2022/09/01 08:44:50;;;;;;;4.43;1.33;;;;;;;18.94;100.00;98857.59;5173993;27;20137;-51
2022/09/01 08:47:19;;;;;;;2.13;1.27;;;;;;;18.79;100.00;98832.91;5174189;27;20050;-54
2022/09/01 08:49:48;;;;;;;2.75;1.23;;;;;;;19.37;100.00;98859.44;5174332;27;20061;-51
2022/09/01 08:52:23;;;;;;;1.45;1.10;;;;;;;19.15;100.00;98859.13;5174153;27;20081;-54
2022/09/01 08:54:53;;;;;;;2.40;1.35;;;;;;;19.05;100.00;98856.16;5173752;27;20078;-54
2022/09/01 08:57:23;;;;;;;4.03;1.55;;;;;;;19.01;100.00;98852.66;5173895;27;20050;-52
2022/09/01 08:59:51;;;;;;;1.70;1.48;;;;;;;20.18;100.00;98869.81;5173632;27;20462;-52
2022/09/01 09:02:33;;;;;;;1.05;1.05;;;;;;;20.59;93.88;98893.44;5173796;27;20133;-53
2022/09/01 09:05:04;;;;;;;2.25;1.05;;;;;;;19.79;97.80;98888.25;5173510;27;20066;-51
2022/09/01 09:07:48;;;;;;;1.38;1.27;;;;;;;19.98;98.63;98881.06;5173633;27;20137;-52
2022/09/01 09:10:20;;;;;;;1.77;1.40;;;;;;;19.83;100.00;98869.50;5173473;27;20101;-51
2022/09/01 09:12:59;;;;;;;5.15;1.42;;;;;;;19.31;100.00;98861.16;5173595;27;20481;-50
2022/09/01 09:15:32;;;;;;;2.97;1.40;;;;;;;18.75;100.00;98879.38;5173399;27;20062;-52
2022/09/01 09:18:11;;;;;;;1.20;1.10;;;;;;;19.07;98.48;98877.97;5173464;27;20401;-53
2022/09/01 09:20:37;;;;;;;1.77;1.30;;;;;;;18.89;100.00;98869.19;5173671;27;20042;-53
2022/09/01 09:23:16;;;;;;;3.72;1.20;;;;;;;20.08;95.98;98882.00;5173296;27;20054;-54
2022/09/01 09:25:42;;;;;;;1.95;0.90;;;;;;;19.87;94.75;98891.69;5172980;27;20548;-53
2022/09/01 09:28:09;;;;;;;1.63;1.17;;;;;;;19.89;96.86;98880.88;5173015;27;20057;-55
2022/09/01 09:30:36;;;;;;;1.45;1.10;;;;;;;19.66;100.00;98877.06;5172886;27;20054;-53
2022/09/01 09:33:05;;;;;;;1.23;1.15;;;;;;;19.26;100.00;98860.47;5173111;27;20054;-54
2022/09/01 09:35:35;;;;;;;1.25;1.10;;;;;;;18.56;100.00;98866.28;5173047;27;20103;-53
2022/09/01 09:38:21;;;;;;;0.90;0.90;;;;;;;17.66;100.00;98844.81;5173160;27;20429;-51
2022/09/01 09:41:14;;;;;;;1.30;1.20;;;;;;;17.59;100.00;98847.69;5173015;27;20049;-50
2022/09/01 09:43:45;;;;;;;1.33;1.15;;;;;;;17.70;100.00;98808.72;5168951;27;20103;-52
2022/09/01 09:46:24;;;;;;;1.20;1.10;;;;;;;18.74;100.00;98818.72;5173039;27;20081;-52
2022/09/01 09:49:08;;;;;;;1.48;1.00;;;;;;;18.80;100.00;98842.03;5173003;27;20568;-52
2022/09/01 09:51:35;;;;;;;5.13;1.42;;;;;;;18.41;100.00;98853.84;5173183;27;20493;-53
2022/09/01 09:54:15;;;;;;;2.15;1.10;;;;;;;18.49;100.00;98849.72;5172701;27;20060;-52
2022/09/01 09:56:43;;;;;;;1.55;1.45;;;;;;;18.47;100.00;98854.94;5172782;27;20057;-55
2022/09/01 09:59:21;;;;;;;2.72;1.08;;;;;;;18.18;100.00;98865.78;5172409;27;20417;-55
2022/09/01 10:01:50;;;;;;;1.17;1.08;;;;;;;18.20;100.00;98861.38;5172421;27;20058;-53
2022/09/01 10:04:32;;;;;;;1.23;1.00;;;;;;;17.82;100.00;98852.50;5172282;27;20179;-51
2022/09/01 10:06:59;;;;;;;3.72;1.33;;;;;;;17.61;100.00;98848.06;5170279;27;20524;-55
2022/09/01 10:09:35;;;;;;;1.60;1.00;;;;;;;18.18;100.00;98861.00;5172416;27;20115;-53
2022/09/01 10:12:02;;;;;;;2.85;1.65;;;;;;;18.17;100.00;98862.22;5172200;27;20057;-50
2022/09/01 10:14:34;;;;;;;1.23;1.10;;;;;;;18.04;100.00;98856.50;5172253;27;20053;-53
2022/09/01 10:17:06;;;;;;;1.77;1.02;;;;;;;17.50;100.00;98828.84;5172646;27;20133;-49
2022/09/01 10:19:35;;;;;;;1.67;0.98;;;;;;;17.54;100.00;98839.88;5172245;27;20058;-49
2022/09/01 10:22:02;;;;;;;1.42;0.90;;;;;;;17.39;100.00;98836.50;5172416;27;20054;-49
2022/09/01 10:24:31;;;;;;;1.45;1.30;;;;;;;17.20;100.00;98829.69;5172345;27;20193;-49
2022/09/01 10:27:02;;;;;;;4.18;1.20;;;;;;;17.09;100.00;98823.47;5172278;27;20504;-55
2022/09/01 10:29:33;;;;;;;1.38;1.23;;;;;;;17.28;100.00;98808.97;5172239;27;20096;-50
2022/09/01 10:32:01;;;;;;;2.28;1.30;;;;;;;17.49;100.00;98818.16;5172306;27;20065;-52
2022/09/01 10:34:33;;;;;;;2.10;1.10;;;;;;;17.47;100.00;98824.13;5172007;27;20042;-50
2022/09/01 10:37:00;;;;;;;1.00;1.00;;;;;;;17.44;100.00;98824.97;5171121;27;20042;-53
2022/09/01 10:39:26;;;;;;;2.30;1.40;;;;;;;17.80;100.00;98821.66;5171861;27;20050;-50
2022/09/01 10:41:56;;;;;;;2.50;1.10;;;;;;;17.66;100.00;98833.75;5171840;27;20050;-51
2022/09/01 10:44:29;;;;;;;2.58;1.30;;;;;;;17.90;100.00;98831.78;5171903;27;20046;-51
2022/09/01 10:46:56;;;;;;;6.72;1.80;;;;;;;18.13;100.00;98844.84;5171969;27;20561;-50
2022/09/01 10:49:59;;;;;;;1.15;1.05;;;;;;;17.90;100.00;98862.28;5171701;27;20081;-48
2022/09/01 10:52:54;;;;;;;2.72;1.30;;;;;;;17.61;100.00;98881.31;5171712;27;20102;-48
2022/09/01 10:55:24;;;;;;;1.10;1.00;;;;;;;17.20;100.00;98873.22;5171554;27;20050;-53
2022/09/01 10:57:58;;;;;;;20.45;1.15;;;;;;;17.47;100.00;98859.38;5171738;27;20042;-50
2022/09/01 11:00:44;;;;;;;0.93;0.93;;;;;;;17.25;100.00;98845.03;5171603;27;20077;-50
2022/09/01 11:03:48;;;;;;;2.75;1.38;;;;;;;17.06;100.00;98835.41;5171363;27;20049;-49
2022/09/01 11:06:57;;;;;;;1.33;1.15;;;;;;;16.90;100.00;98816.63;5171703;27;20997;-49
2022/09/01 11:09:28;;;;;;;5.72;1.48;;;;;;;17.04;100.00;98819.22;5171800;27;20083;-50
2022/09/01 11:12:21;;;;;;;3.17;1.20;;;;;;;17.29;100.00;98804.22;5171430;27;20051;-49
2022/09/01 11:14:51;;;;;;;1.05;1.00;;;;;;;17.63;100.00;98838.13;5171679;27;20050;-49
2022/09/01 11:17:21;;;;;;;1.92;1.00;;;;;;;17.63;100.00;98823.50;5171258;27;20050;-51
2022/09/01 11:19:56;;;;;;;3.63;1.50;;;;;;;17.77;100.00;98830.81;5171713;27;20042;-49
2022/09/01 11:22:35;;;;;;;3.42;1.10;;;;;;;17.60;100.00;98822.34;5171330;27;20056;-47
2022/09/01 11:25:37;;;;;;;1.88;1.20;;;;;;;17.52;100.00;98840.25;5171461;27;20085;-49
2022/09/01 11:28:40;;;;;;;3.15;1.35;;;;;;;17.04;100.00;98833.06;5171614;27;20053;-47
2022/09/01 11:31:25;;;;;;;2.85;1.40;;;;;;;16.95;100.00;98818.94;5171615;27;20043;-47
2022/09/01 11:34:01;;;;;;;2.22;1.00;;;;;;;16.83;100.00;98806.44;5171193;27;20054;-48
2022/09/01 11:36:31;;;;;;;1.70;1.20;;;;;;;16.96;100.00;98809.44;5171510;27;20062;-51
2022/09/01 11:39:07;;;;;;;1.35;1.02;;;;;;;16.96;100.00;98808.63;5171318;27;20054;-48
2022/09/01 11:41:49;;;;;;;2.72;0.98;;;;;;;17.12;100.00;98839.28;5171375;27;20046;-48
2022/09/01 11:44:35;;;;;;;1.48;0.80;;;;;;;17.26;100.00;98846.59;5170976;27;20133;-47